sensor_id;sensor_type;location;lat;lon;timestamp;pressure;altitude;pressure_sealevel;temperature;humidity
35778;BME280;21899;42.662;23.316;2023-04-06T00:00:59;94145.19;;;-0.35;88.19
35778;BME280;21899;42.662;23.316;2023-04-06T00:03:25;94132.22;;;-0.40;89.35
35778;BME280;21899;42.662;23.316;2023-04-06T00:05:50;94134.88;;;-0.40;89.08
35778;BME280;21899;42.662;23.316;2023-04-06T00:08:16;94124.47;;;-0.36;88.83
35778;BME280;21899;42.662;23.316;2023-04-06T00:10:42;94120.44;;;-0.34;88.82
35778;BME280;21899;42.662;23.316;2023-04-06T00:13:07;94113.97;;;-0.36;88.70
35778;BME280;21899;42.662;23.316;2023-04-06T00:15:33;94111.34;;;-0.36;88.96
35778;BME280;21899;42.662;23.316;2023-04-06T00:17:59;94113.22;;;-0.37;89.18
35778;BME280;21899;42.662;23.316;2023-04-06T00:20:25;94104.88;;;-0.39;89.05
35778;BME280;21899;42.662;23.316;2023-04-06T00:22:51;94120.00;;;-0.36;88.97
35778;BME280;21899;42.662;23.316;2023-04-06T00:25:16;94116.72;;;-0.33;88.96
35778;BME280;21899;42.662;23.316;2023-04-06T00:27:42;94102.81;;;-0.33;88.94
35778;BME280;21899;42.662;23.316;2023-04-06T00:30:08;94092.19;;;-0.37;88.97
35778;BME280;21899;42.662;23.316;2023-04-06T00:32:34;94089.88;;;-0.38;88.50
35778;BME280;21899;42.662;23.316;2023-04-06T00:35:01;94101.19;;;-0.26;88.25
35778;BME280;21899;42.662;23.316;2023-04-06T00:37:26;94089.78;;;-0.30;87.99
35778;BME280;21899;42.662;23.316;2023-04-06T00:39:52;94091.66;;;-0.30;87.61
35778;BME280;21899;42.662;23.316;2023-04-06T00:42:17;94080.88;;;-0.37;87.83
35778;BME280;21899;42.662;23.316;2023-04-06T00:44:50;94088.97;;;-0.22;88.15
35778;BME280;21899;42.662;23.316;2023-04-06T00:47:16;94084.84;;;-0.31;87.47
35778;BME280;21899;42.662;23.316;2023-04-06T00:49:41;94084.09;;;-0.32;87.90
35778;BME280;21899;42.662;23.316;2023-04-06T00:52:07;94084.09;;;-0.32;87.90
35778;BME280;21899;42.662;23.316;2023-04-06T00:54:33;94092.41;;;-0.30;88.07
35778;BME280;21899;42.662;23.316;2023-04-06T00:56:58;94085.75;;;-0.27;88.51
35778;BME280;21899;42.662;23.316;2023-04-06T00:59:24;94093.97;;;-0.29;88.51
35778;BME280;21899;42.662;23.316;2023-04-06T01:01:49;94086.53;;;-0.27;88.87
35778;BME280;21899;42.662;23.316;2023-04-06T01:04:15;94083.13;;;-0.27;88.64
35778;BME280;21899;42.662;23.316;2023-04-06T01:06:40;94092.41;;;-0.30;88.58
35778;BME280;21899;42.662;23.316;2023-04-06T01:09:06;94093.13;;;-0.21;88.92
35778;BME280;21899;42.662;23.316;2023-04-06T01:11:31;94086.63;;;-0.23;88.77
35778;BME280;21899;42.662;23.316;2023-04-06T01:13:57;94089.50;;;-0.16;88.92
35778;BME280;21899;42.662;23.316;2023-04-06T01:16:23;94089.81;;;-0.18;88.44
35778;BME280;21899;42.662;23.316;2023-04-06T01:18:49;94088.09;;;-0.14;87.86
35778;BME280;21899;42.662;23.316;2023-04-06T01:21:15;94086.34;;;-0.10;88.53
35778;BME280;21899;42.662;23.316;2023-04-06T01:23:45;94079.56;;;-0.11;87.91
35778;BME280;21899;42.662;23.316;2023-04-06T01:26:11;94083.06;;;-0.07;87.68
35778;BME280;21899;42.662;23.316;2023-04-06T01:28:37;94078.56;;;-0.06;87.80
35778;BME280;21899;42.662;23.316;2023-04-06T01:31:03;94070.94;;;0.01;87.86
35778;BME280;21899;42.662;23.316;2023-04-06T01:33:29;94075.00;;;0.11;87.72
35778;BME280;21899;42.662;23.316;2023-04-06T01:35:55;94060.97;;;0.07;86.68
35778;BME280;21899;42.662;23.316;2023-04-06T01:38:20;94063.59;;;0.07;87.65
35778;BME280;21899;42.662;23.316;2023-04-06T01:40:46;94060.31;;;0.10;87.61
35778;BME280;21899;42.662;23.316;2023-04-06T01:43:11;94062.94;;;0.10;87.17
35778;BME280;21899;42.662;23.316;2023-04-06T01:45:37;94063.16;;;0.17;87.48
35778;BME280;21899;42.662;23.316;2023-04-06T01:48:03;94060.97;;;0.19;86.66
35778;BME280;21899;42.662;23.316;2023-04-06T01:50:28;94070.22;;;0.25;87.21
35778;BME280;21899;42.662;23.316;2023-04-06T01:52:54;94066.81;;;0.24;86.37
35778;BME280;21899;42.662;23.316;2023-04-06T01:55:20;94063.75;;;0.34;86.69
35778;BME280;21899;42.662;23.316;2023-04-06T01:57:45;94048.94;;;0.30;86.04
35778;BME280;21899;42.662;23.316;2023-04-06T02:00:11;94055.53;;;0.36;85.82
35778;BME280;21899;42.662;23.316;2023-04-06T02:02:37;94051.13;;;0.28;85.69
35778;BME280;21899;42.662;23.316;2023-04-06T02:05:03;94053.09;;;0.31;86.06
35778;BME280;21899;42.662;23.316;2023-04-06T02:07:28;94053.09;;;0.31;86.06
35778;BME280;21899;42.662;23.316;2023-04-06T02:09:54;94047.75;;;0.39;86.28
35778;BME280;21899;42.662;23.316;2023-04-06T02:12:23;94061.44;;;0.45;85.55
35778;BME280;21899;42.662;23.316;2023-04-06T02:14:49;94054.97;;;0.42;85.20
35778;BME280;21899;42.662;23.316;2023-04-06T02:17:14;94046.53;;;0.37;85.78
35778;BME280;21899;42.662;23.316;2023-04-06T02:19:40;94056.41;;;0.40;85.53
35778;BME280;21899;42.662;23.316;2023-04-06T02:22:05;94050.72;;;0.38;85.34
35778;BME280;21899;42.662;23.316;2023-04-06T02:24:31;94043.47;;;0.35;85.45
35778;BME280;21899;42.662;23.316;2023-04-06T02:26:56;94053.22;;;0.34;85.18
35778;BME280;21899;42.662;23.316;2023-04-06T02:29:22;94042.81;;;0.38;85.81
35778;BME280;21899;42.662;23.316;2023-04-06T02:31:47;94054.56;;;0.52;85.45
35778;BME280;21899;42.662;23.316;2023-04-06T02:34:13;94047.66;;;0.48;85.03
35778;BME280;21899;42.662;23.316;2023-04-06T02:36:46;94054.00;;;0.47;85.08
35778;BME280;21899;42.662;23.316;2023-04-06T02:39:12;94057.63;;;0.42;85.92
35778;BME280;21899;42.662;23.316;2023-04-06T02:41:38;94055.75;;;0.43;85.25
35778;BME280;21899;42.662;23.316;2023-04-06T02:44:06;94049.59;;;0.39;85.73
35778;BME280;21899;42.662;23.316;2023-04-06T02:46:32;94045.56;;;0.41;85.30
35778;BME280;21899;42.662;23.316;2023-04-06T02:48:57;94041.72;;;0.39;85.90
35778;BME280;21899;42.662;23.316;2023-04-06T02:51:25;94045.44;;;0.38;85.93
35778;BME280;21899;42.662;23.316;2023-04-06T02:53:51;94039.50;;;0.29;86.23
35778;BME280;21899;42.662;23.316;2023-04-06T02:56:16;94041.06;;;0.30;86.74
35778;BME280;21899;42.662;23.316;2023-04-06T02:58:42;94050.72;;;0.38;86.61
35778;BME280;21899;42.662;23.316;2023-04-06T03:01:07;94048.75;;;0.35;86.00
35778;BME280;21899;42.662;23.316;2023-04-06T03:03:33;94040.50;;;0.36;85.73
35778;BME280;21899;42.662;23.316;2023-04-06T03:05:58;94046.75;;;0.44;85.45
35778;BME280;21899;42.662;23.316;2023-04-06T03:08:25;94046.09;;;0.47;85.89
35778;BME280;21899;42.662;23.316;2023-04-06T03:10:50;94044.56;;;0.46;85.60
35778;BME280;21899;42.662;23.316;2023-04-06T03:13:16;94036.78;;;0.37;85.38
35778;BME280;21899;42.662;23.316;2023-04-06T03:15:41;94037.09;;;0.36;86.17
35778;BME280;21899;42.662;23.316;2023-04-06T03:18:07;94050.25;;;0.36;86.49
35778;BME280;21899;42.662;23.316;2023-04-06T03:20:32;94050.91;;;0.33;87.25
35778;BME280;21899;42.662;23.316;2023-04-06T03:22:58;94036.41;;;0.27;86.98
35778;BME280;21899;42.662;23.316;2023-04-06T03:25:24;94049.69;;;0.30;87.04
35778;BME280;21899;42.662;23.316;2023-04-06T03:27:49;94035.78;;;0.30;86.95
35778;BME280;21899;42.662;23.316;2023-04-06T03:30:15;94038.44;;;0.30;87.01
35778;BME280;21899;42.662;23.316;2023-04-06T03:32:43;94048.75;;;0.35;86.61
35778;BME280;21899;42.662;23.316;2023-04-06T03:35:09;94038.72;;;0.28;86.23
35778;BME280;21899;42.662;23.316;2023-04-06T03:37:34;94041.16;;;0.33;86.19
35778;BME280;21899;42.662;23.316;2023-04-06T03:40:00;94044.44;;;0.42;85.70
35778;BME280;21899;42.662;23.316;2023-04-06T03:42:26;94045.66;;;0.45;85.91
35778;BME280;21899;42.662;23.316;2023-04-06T03:44:52;94046.97;;;0.51;86.26
35778;BME280;21899;42.662;23.316;2023-04-06T03:47:17;94042.91;;;0.53;84.80
35778;BME280;21899;42.662;23.316;2023-04-06T03:49:43;94049.50;;;0.59;85.20
35778;BME280;21899;42.662;23.316;2023-04-06T03:52:08;94041.47;;;0.68;85.26
35778;BME280;21899;42.662;23.316;2023-04-06T03:54:33;94038.44;;;0.66;84.21
35778;BME280;21899;42.662;23.316;2023-04-06T03:56:59;94045.22;;;0.67;84.29
35778;BME280;21899;42.662;23.316;2023-04-06T03:59:25;94036.75;;;0.61;84.18
35778;BME280;21899;42.662;23.316;2023-04-06T04:01:51;94033.59;;;0.56;84.04
35778;BME280;21899;42.662;23.316;2023-04-06T04:04:16;94045.88;;;0.64;83.98
35778;BME280;21899;42.662;23.316;2023-04-06T04:06:41;94037.53;;;0.62;84.25
35778;BME280;21899;42.662;23.316;2023-04-06T04:09:07;94046.75;;;0.68;83.47
35778;BME280;21899;42.662;23.316;2023-04-06T04:11:32;94043.13;;;0.72;83.30
35778;BME280;21899;42.662;23.316;2023-04-06T04:13:58;94044.56;;;0.70;83.41
35778;BME280;21899;42.662;23.316;2023-04-06T04:16:23;94043.03;;;0.69;82.94
35778;BME280;21899;42.662;23.316;2023-04-06T04:18:49;94046.09;;;0.71;83.08
35778;BME280;21899;42.662;23.316;2023-04-06T04:21:14;94047.41;;;0.65;83.77
35778;BME280;21899;42.662;23.316;2023-04-06T04:23:40;94030.31;;;0.59;83.51
35778;BME280;21899;42.662;23.316;2023-04-06T04:26:05;94042.16;;;0.65;83.62
35778;BME280;21899;42.662;23.316;2023-04-06T04:28:31;94055.09;;;0.70;83.56
35778;BME280;21899;42.662;23.316;2023-04-06T04:30:56;94040.63;;;0.64;83.92
35778;BME280;21899;42.662;23.316;2023-04-06T04:33:22;94059.81;;;0.76;84.04
35778;BME280;21899;42.662;23.316;2023-04-06T04:35:48;94052.69;;;0.77;83.39
35778;BME280;21899;42.662;23.316;2023-04-06T04:38:13;94050.50;;;0.79;82.42
35778;BME280;21899;42.662;23.316;2023-04-06T04:40:39;94045.84;;;0.88;82.18
35778;BME280;21899;42.662;23.316;2023-04-06T04:43:04;94041.47;;;0.92;82.09
35778;BME280;21899;42.662;23.316;2023-04-06T04:45:30;94045.84;;;1.00;81.92
35778;BME280;21899;42.662;23.316;2023-04-06T04:47:56;94046.63;;;1.00;82.30
35778;BME280;21899;42.662;23.316;2023-04-06T04:50:21;94024.88;;;0.91;82.07
35778;BME280;21899;42.662;23.316;2023-04-06T04:52:46;94048.16;;;1.01;81.66
35778;BME280;21899;42.662;23.316;2023-04-06T04:55:12;94044.44;;;1.02;81.69
35778;BME280;21899;42.662;23.316;2023-04-06T04:57:37;94039.56;;;1.04;81.97
35778;BME280;21899;42.662;23.316;2023-04-06T05:00:03;94045.06;;;1.11;81.63
35778;BME280;21899;42.662;23.316;2023-04-06T05:02:28;94050.66;;;1.10;81.64
35778;BME280;21899;42.662;23.316;2023-04-06T05:04:54;94051.78;;;1.09;81.61
35778;BME280;21899;42.662;23.316;2023-04-06T05:07:20;94043.63;;;1.14;81.79
35778;BME280;21899;42.662;23.316;2023-04-06T05:09:46;94036.78;;;1.25;81.55
35778;BME280;21899;42.662;23.316;2023-04-06T05:12:11;94046.09;;;1.34;80.91
35778;BME280;21899;42.662;23.316;2023-04-06T05:14:37;94041.16;;;1.33;81.12
35778;BME280;21899;42.662;23.316;2023-04-06T05:17:03;94045.53;;;1.41;80.47
35778;BME280;21899;42.662;23.316;2023-04-06T05:19:29;94034.59;;;1.27;80.14
35778;BME280;21899;42.662;23.316;2023-04-06T05:21:55;94034.53;;;1.39;80.69
35778;BME280;21899;42.662;23.316;2023-04-06T05:24:20;94038.34;;;1.54;80.26
35778;BME280;21899;42.662;23.316;2023-04-06T05:26:45;94037.59;;;1.53;80.12
35778;BME280;21899;42.662;23.316;2023-04-06T05:29:11;94059.03;;;1.52;80.36
35778;BME280;21899;42.662;23.316;2023-04-06T05:31:37;94040.69;;;1.43;80.75
35778;BME280;21899;42.662;23.316;2023-04-06T05:34:03;94049.63;;;1.39;81.13
35778;BME280;21899;42.662;23.316;2023-04-06T05:36:28;94043.41;;;1.59;80.85
35778;BME280;21899;42.662;23.316;2023-04-06T05:38:53;94034.81;;;1.62;80.69
35778;BME280;21899;42.662;23.316;2023-04-06T05:41:20;94035.59;;;1.78;80.54
35778;BME280;21899;42.662;23.316;2023-04-06T05:43:46;94045.78;;;1.91;79.50
35778;BME280;21899;42.662;23.316;2023-04-06T05:46:11;94048.66;;;1.86;79.83
35778;BME280;21899;42.662;23.316;2023-04-06T05:48:36;94049.34;;;1.83;79.88
35778;BME280;21899;42.662;23.316;2023-04-06T05:51:02;94033.78;;;1.66;80.13
35778;BME280;21899;42.662;23.316;2023-04-06T05:53:31;94042.50;;;1.82;80.31
35778;BME280;21899;42.662;23.316;2023-04-06T05:55:56;94041.66;;;1.78;80.04
35778;BME280;21899;42.662;23.316;2023-04-06T05:58:22;94039.28;;;1.73;80.42
35778;BME280;21899;42.662;23.316;2023-04-06T06:00:47;94044.44;;;1.70;80.91
35778;BME280;21899;42.662;23.316;2023-04-06T06:03:13;94034.09;;;1.77;81.39
35778;BME280;21899;42.662;23.316;2023-04-06T06:05:38;94025.50;;;1.95;80.40
35778;BME280;21899;42.662;23.316;2023-04-06T06:08:04;94036.84;;;1.96;79.69
35778;BME280;21899;42.662;23.316;2023-04-06T06:10:30;94025.34;;;1.88;79.52
35778;BME280;21899;42.662;23.316;2023-04-06T06:12:55;94031.16;;;2.09;80.20
35778;BME280;21899;42.662;23.316;2023-04-06T06:15:21;94020.53;;;2.21;79.86
35778;BME280;21899;42.662;23.316;2023-04-06T06:17:46;94037.66;;;2.43;78.84
35778;BME280;21899;42.662;23.316;2023-04-06T06:20:12;94030.31;;;2.52;77.82
35778;BME280;21899;42.662;23.316;2023-04-06T06:22:37;94030.16;;;2.60;77.55
35778;BME280;21899;42.662;23.316;2023-04-06T06:25:03;94030.63;;;2.82;77.63
35778;BME280;21899;42.662;23.316;2023-04-06T06:27:28;94021.28;;;3.03;75.54
35778;BME280;21899;42.662;23.316;2023-04-06T06:29:54;94024.81;;;2.92;76.46
35778;BME280;21899;42.662;23.316;2023-04-06T06:32:20;94029.72;;;3.09;76.78
35778;BME280;21899;42.662;23.316;2023-04-06T06:34:45;94027.44;;;3.26;74.87
35778;BME280;21899;42.662;23.316;2023-04-06T06:37:10;94029.63;;;3.40;73.51
35778;BME280;21899;42.662;23.316;2023-04-06T06:39:36;94019.31;;;3.54;72.65
35778;BME280;21899;42.662;23.316;2023-04-06T06:42:01;94021.13;;;3.31;72.99
35778;BME280;21899;42.662;23.316;2023-04-06T06:44:27;94026.75;;;3.29;74.68
35778;BME280;21899;42.662;23.316;2023-04-06T06:46:53;94026.41;;;3.31;73.51
35778;BME280;21899;42.662;23.316;2023-04-06T06:49:19;94017.16;;;3.21;74.50
35778;BME280;21899;42.662;23.316;2023-04-06T06:51:44;94029.81;;;3.31;74.91
35778;BME280;21899;42.662;23.316;2023-04-06T06:54:11;94031.03;;;3.53;74.40
35778;BME280;21899;42.662;23.316;2023-04-06T06:56:37;94023.78;;;3.69;72.98
35778;BME280;21899;42.662;23.316;2023-04-06T06:59:03;94030.81;;;3.61;71.10
35778;BME280;21899;42.662;23.316;2023-04-06T07:01:29;94034.63;;;3.64;71.72
35778;BME280;21899;42.662;23.316;2023-04-06T07:03:54;94030.78;;;3.99;71.29
35778;BME280;21899;42.662;23.316;2023-04-06T07:06:20;94021.69;;;4.20;71.28
35778;BME280;21899;42.662;23.316;2023-04-06T07:08:46;94024.22;;;4.35;70.67
35778;BME280;21899;42.662;23.316;2023-04-06T07:11:11;94027.22;;;4.11;70.45
35778;BME280;21899;42.662;23.316;2023-04-06T07:13:37;94029.03;;;4.07;69.53
35778;BME280;21899;42.662;23.316;2023-04-06T07:16:02;94022.81;;;4.19;70.07
35778;BME280;21899;42.662;23.316;2023-04-06T07:18:28;94012.69;;;4.24;69.25
35778;BME280;21899;42.662;23.316;2023-04-06T07:20:53;94026.44;;;4.33;68.92
35778;BME280;21899;42.662;23.316;2023-04-06T07:23:19;94013.78;;;4.23;67.50
35778;BME280;21899;42.662;23.316;2023-04-06T07:25:44;94018.34;;;4.23;67.15
35778;BME280;21899;42.662;23.316;2023-04-06T07:28:10;94016.75;;;4.18;68.29
35778;BME280;21899;42.662;23.316;2023-04-06T07:30:37;94024.63;;;4.37;67.01
35778;BME280;21899;42.662;23.316;2023-04-06T07:33:02;94022.88;;;4.22;67.84
35778;BME280;21899;42.662;23.316;2023-04-06T07:35:28;94010.84;;;4.28;67.52
35778;BME280;21899;42.662;23.316;2023-04-06T07:37:55;94013.03;;;4.45;65.39
35778;BME280;21899;42.662;23.316;2023-04-06T07:40:21;94023.41;;;4.54;65.92
35778;BME280;21899;42.662;23.316;2023-04-06T07:42:47;94022.72;;;4.15;66.99
35778;BME280;21899;42.662;23.316;2023-04-06T07:45:13;94023.31;;;4.05;68.13
35778;BME280;21899;42.662;23.316;2023-04-06T07:47:38;94015.56;;;3.74;70.17
35778;BME280;21899;42.662;23.316;2023-04-06T07:50:05;94018.69;;;3.60;72.48
35778;BME280;21899;42.662;23.316;2023-04-06T07:52:31;94018.22;;;3.55;72.66
35778;BME280;21899;42.662;23.316;2023-04-06T07:54:58;94005.31;;;3.34;74.13
35778;BME280;21899;42.662;23.316;2023-04-06T07:57:23;94019.94;;;3.47;74.84
35778;BME280;21899;42.662;23.316;2023-04-06T07:59:48;94017.66;;;3.46;74.50
35778;BME280;21899;42.662;23.316;2023-04-06T08:02:14;94017.38;;;3.32;74.66
35778;BME280;21899;42.662;23.316;2023-04-06T08:04:40;94011.34;;;3.16;76.35
35778;BME280;21899;42.662;23.316;2023-04-06T08:07:05;94037.88;;;3.19;77.00
35778;BME280;21899;42.662;23.316;2023-04-06T08:09:31;94007.97;;;3.15;76.45
35778;BME280;21899;42.662;23.316;2023-04-06T08:11:57;94001.50;;;3.32;76.67
35778;BME280;21899;42.662;23.316;2023-04-06T08:14:22;94021.97;;;3.54;74.23
35778;BME280;21899;42.662;23.316;2023-04-06T08:16:48;93999.38;;;3.79;72.65
35778;BME280;21899;42.662;23.316;2023-04-06T08:19:13;94026.13;;;3.74;73.72
35778;BME280;21899;42.662;23.316;2023-04-06T08:21:42;94022.13;;;3.42;74.44
35778;BME280;21899;42.662;23.316;2023-04-06T08:24:08;94016.13;;;3.45;74.54
35778;BME280;21899;42.662;23.316;2023-04-06T08:26:33;94021.69;;;3.40;74.53
35778;BME280;21899;42.662;23.316;2023-04-06T08:28:58;94033.78;;;3.41;74.61
35778;BME280;21899;42.662;23.316;2023-04-06T08:31:24;94026.97;;;3.59;72.74
35778;BME280;21899;42.662;23.316;2023-04-06T08:33:49;94007.03;;;3.84;73.33
35778;BME280;21899;42.662;23.316;2023-04-06T08:36:15;94020.13;;;4.38;69.52
35778;BME280;21899;42.662;23.316;2023-04-06T08:38:42;94031.59;;;4.45;63.97
35778;BME280;21899;42.662;23.316;2023-04-06T08:41:12;94020.03;;;4.57;63.83
35778;BME280;21899;42.662;23.316;2023-04-06T08:43:47;94013.13;;;4.75;64.36
35778;BME280;21899;42.662;23.316;2023-04-06T08:46:14;94019.56;;;5.00;62.02
35778;BME280;21899;42.662;23.316;2023-04-06T08:48:41;94027.50;;;5.26;62.21
35778;BME280;21899;42.662;23.316;2023-04-06T08:51:10;94031.41;;;5.35;58.91
35778;BME280;21899;42.662;23.316;2023-04-06T08:53:37;94030.78;;;5.46;58.23
35778;BME280;21899;42.662;23.316;2023-04-06T08:56:03;94015.44;;;5.28;58.33
35778;BME280;21899;42.662;23.316;2023-04-06T08:58:34;94025.88;;;5.18;59.25
35778;BME280;21899;42.662;23.316;2023-04-06T09:01:00;94033.16;;;5.24;59.77
35778;BME280;21899;42.662;23.316;2023-04-06T09:03:28;94024.09;;;5.25;59.74
35778;BME280;21899;42.662;23.316;2023-04-06T09:05:55;94026.53;;;5.11;61.10
35778;BME280;21899;42.662;23.316;2023-04-06T09:08:21;94017.16;;;4.91;61.35
35778;BME280;21899;42.662;23.316;2023-04-06T09:10:47;94028.09;;;4.64;59.13
35778;BME280;21899;42.662;23.316;2023-04-06T09:13:14;94010.38;;;4.45;59.61
35778;BME280;21899;42.662;23.316;2023-04-06T09:15:39;94023.81;;;4.33;60.83
35778;BME280;21899;42.662;23.316;2023-04-06T09:18:05;94021.75;;;4.46;60.90
35778;BME280;21899;42.662;23.316;2023-04-06T09:20:31;94014.19;;;4.70;60.39
35778;BME280;21899;42.662;23.316;2023-04-06T09:22:56;94020.22;;;4.67;60.20
35778;BME280;21899;42.662;23.316;2023-04-06T09:25:23;94004.94;;;4.83;59.62
35778;BME280;21899;42.662;23.316;2023-04-06T09:27:59;94021.09;;;5.01;60.15
35778;BME280;21899;42.662;23.316;2023-04-06T09:30:25;94012.25;;;5.19;59.04
35778;BME280;21899;42.662;23.316;2023-04-06T09:32:55;94010.78;;;5.52;57.87
35778;BME280;21899;42.662;23.316;2023-04-06T09:35:21;94021.41;;;5.52;56.32
35778;BME280;21899;42.662;23.316;2023-04-06T09:37:50;94022.06;;;5.75;55.69
35778;BME280;21899;42.662;23.316;2023-04-06T09:40:17;94012.56;;;6.07;54.04
35778;BME280;21899;42.662;23.316;2023-04-06T09:42:48;94024.41;;;6.13;53.05
35778;BME280;21899;42.662;23.316;2023-04-06T09:45:15;94009.63;;;6.15;52.43
35778;BME280;21899;42.662;23.316;2023-04-06T09:47:45;94014.13;;;6.08;52.79
35778;BME280;21899;42.662;23.316;2023-04-06T09:50:12;93999.88;;;6.30;52.32
35778;BME280;21899;42.662;23.316;2023-04-06T09:52:48;94015.97;;;6.44;51.22
35778;BME280;21899;42.662;23.316;2023-04-06T09:55:23;94012.25;;;6.52;52.28
35778;BME280;21899;42.662;23.316;2023-04-06T09:58:05;94024.75;;;6.95;49.78
35778;BME280;21899;42.662;23.316;2023-04-06T10:00:34;94023.22;;;6.94;48.54
35778;BME280;21899;42.662;23.316;2023-04-06T10:05:55;94014.25;;;7.16;48.83
35778;BME280;21899;42.662;23.316;2023-04-06T10:08:24;94016.31;;;6.86;48.89
35778;BME280;21899;42.662;23.316;2023-04-06T10:10:50;94013.09;;;6.63;48.76
35778;BME280;21899;42.662;23.316;2023-04-06T10:13:17;94013.75;;;6.53;48.68
35778;BME280;21899;42.662;23.316;2023-04-06T10:15:44;94009.59;;;6.52;48.86
35778;BME280;21899;42.662;23.316;2023-04-06T10:18:10;94011.19;;;6.60;48.83
35778;BME280;21899;42.662;23.316;2023-04-06T10:20:41;94010.88;;;6.69;48.66
35778;BME280;21899;42.662;23.316;2023-04-06T10:23:13;93994.91;;;6.69;47.96
35778;BME280;21899;42.662;23.316;2023-04-06T10:25:58;94003.91;;;6.53;49.33
35778;BME280;21899;42.662;23.316;2023-04-06T10:28:24;94007.66;;;6.09;50.61
35778;BME280;21899;42.662;23.316;2023-04-06T10:30:57;94003.22;;;5.83;51.25
35778;BME280;21899;42.662;23.316;2023-04-06T10:33:23;94026.09;;;5.62;52.12
35778;BME280;21899;42.662;23.316;2023-04-06T10:35:49;93979.97;;;5.44;52.43
35778;BME280;21899;42.662;23.316;2023-04-06T10:38:14;93995.19;;;5.47;52.41
35778;BME280;21899;42.662;23.316;2023-04-06T10:40:41;94002.25;;;5.69;52.73
35778;BME280;21899;42.662;23.316;2023-04-06T10:43:13;93990.78;;;5.61;52.21
35778;BME280;21899;42.662;23.316;2023-04-06T10:45:40;93984.41;;;5.66;52.60
35778;BME280;21899;42.662;23.316;2023-04-06T10:48:16;94001.06;;;5.63;52.20
35778;BME280;21899;42.662;23.316;2023-04-06T10:50:47;93988.81;;;5.55;52.84
35778;BME280;21899;42.662;23.316;2023-04-06T10:53:24;93985.44;;;5.58;53.01
35778;BME280;21899;42.662;23.316;2023-04-06T10:55:51;93988.13;;;5.91;51.56
35778;BME280;21899;42.662;23.316;2023-04-06T10:58:16;93983.75;;;6.09;51.45
35778;BME280;21899;42.662;23.316;2023-04-06T11:00:46;94010.47;;;6.23;50.66
35778;BME280;21899;42.662;23.316;2023-04-06T11:03:12;93974.16;;;5.64;52.35
35778;BME280;21899;42.662;23.316;2023-04-06T11:05:37;93980.31;;;5.42;54.68
35778;BME280;21899;42.662;23.316;2023-04-06T11:08:03;93973.69;;;5.59;53.00
35778;BME280;21899;42.662;23.316;2023-04-06T11:10:29;93968.41;;;5.62;52.03
35778;BME280;21899;42.662;23.316;2023-04-06T11:12:56;93965.09;;;5.69;51.17
35778;BME280;21899;42.662;23.316;2023-04-06T11:15:22;93959.50;;;6.14;51.80
35778;BME280;21899;42.662;23.316;2023-04-06T11:17:48;93972.34;;;6.08;50.46
35778;BME280;21899;42.662;23.316;2023-04-06T11:20:14;93969.03;;;6.18;50.56
35778;BME280;21899;42.662;23.316;2023-04-06T11:22:52;93977.16;;;5.96;51.71
35778;BME280;21899;42.662;23.316;2023-04-06T11:25:18;93964.22;;;5.91;51.58
35778;BME280;21899;42.662;23.316;2023-04-06T11:27:45;93969.56;;;5.94;52.56
35778;BME280;21899;42.662;23.316;2023-04-06T11:30:11;93966.53;;;5.63;52.86
35778;BME280;21899;42.662;23.316;2023-04-06T11:32:44;93970.81;;;5.71;53.11
35778;BME280;21899;42.662;23.316;2023-04-06T11:35:20;93947.09;;;5.85;51.80
35778;BME280;21899;42.662;23.316;2023-04-06T11:37:49;93952.53;;;5.99;51.45
35778;BME280;21899;42.662;23.316;2023-04-06T11:40:15;93959.38;;;6.00;51.30
35778;BME280;21899;42.662;23.316;2023-04-06T11:42:41;93957.56;;;6.07;50.81
35778;BME280;21899;42.662;23.316;2023-04-06T11:45:07;93954.06;;;6.00;50.72
35778;BME280;21899;42.662;23.316;2023-04-06T11:47:35;93952.38;;;6.21;50.97
35778;BME280;21899;42.662;23.316;2023-04-06T11:50:09;93947.84;;;5.85;51.35
35778;BME280;21899;42.662;23.316;2023-04-06T11:52:35;93943.47;;;6.03;51.43
35778;BME280;21899;42.662;23.316;2023-04-06T11:55:11;93942.16;;;6.27;51.54
35778;BME280;21899;42.662;23.316;2023-04-06T11:57:37;93943.06;;;6.45;50.16
35778;BME280;21899;42.662;23.316;2023-04-06T12:00:03;93950.69;;;6.50;50.29
35778;BME280;21899;42.662;23.316;2023-04-06T12:02:29;93954.16;;;6.54;50.05
35778;BME280;21899;42.662;23.316;2023-04-06T12:04:56;93948.28;;;6.31;50.08
35778;BME280;21899;42.662;23.316;2023-04-06T12:07:21;93946.53;;;6.05;49.99
35778;BME280;21899;42.662;23.316;2023-04-06T12:09:46;93932.16;;;6.13;50.12
35778;BME280;21899;42.662;23.316;2023-04-06T12:12:12;93938.50;;;6.42;50.36
35778;BME280;21899;42.662;23.316;2023-04-06T12:14:37;93935.13;;;6.48;49.04
35778;BME280;21899;42.662;23.316;2023-04-06T12:17:03;93941.97;;;6.53;49.64
35778;BME280;21899;42.662;23.316;2023-04-06T12:19:28;93927.25;;;6.63;48.65
35778;BME280;21899;42.662;23.316;2023-04-06T12:21:54;93940.81;;;6.47;49.28
35778;BME280;21899;42.662;23.316;2023-04-06T12:24:20;93939.00;;;6.11;50.22
35778;BME280;21899;42.662;23.316;2023-04-06T12:26:46;93947.41;;;6.20;50.51
35778;BME280;21899;42.662;23.316;2023-04-06T12:29:11;93932.81;;;6.00;50.45
35778;BME280;21899;42.662;23.316;2023-04-06T12:31:38;93954.47;;;5.69;51.69
35778;BME280;21899;42.662;23.316;2023-04-06T12:34:05;93943.63;;;5.48;52.57
35778;BME280;21899;42.662;23.316;2023-04-06T12:36:31;93942.50;;;5.49;53.00
35778;BME280;21899;42.662;23.316;2023-04-06T12:38:57;93945.22;;;5.56;52.35
35778;BME280;21899;42.662;23.316;2023-04-06T12:41:22;93926.41;;;5.34;53.31
35778;BME280;21899;42.662;23.316;2023-04-06T12:43:48;93935.88;;;5.35;53.59
35778;BME280;21899;42.662;23.316;2023-04-06T12:46:15;93928.97;;;5.27;53.17
35778;BME280;21899;42.662;23.316;2023-04-06T12:48:40;93931.41;;;5.40;52.71
35778;BME280;21899;42.662;23.316;2023-04-06T12:51:06;93927.34;;;5.19;53.56
35778;BME280;21899;42.662;23.316;2023-04-06T12:53:33;93936.19;;;5.30;53.05
35778;BME280;21899;42.662;23.316;2023-04-06T12:55:59;93909.94;;;5.18;52.06
35778;BME280;21899;42.662;23.316;2023-04-06T12:58:25;93915.69;;;5.61;51.33